Aérodrome :
LOGIN :

S'inscrire | Disclaimer

   EN    FR    IT 

 










Légende :    VFR   VFR Marginal   IFR   IFR Intensif   IFR Très Intensif
Visi : 
Plafond : 
>= 8 km
>= 3000ft
5 à 8 km
1000 à 3000 ft
1500m à 5 km
500 à 1000 ft
800 à 1500m
200 à 500 ft
< 800m
< 200 ft
Symboles :   Orages  Brouillard  Fortes neiges  Fortes précipitations  Vent > 20 kt
SIGMETs :   Divers  Orages  Givrage  Turbulence  Onde Orograph.  Cendres Volcan.






- Altitude de l'aérodrome : 1470 ft
- Code IATA : KLU


LOWK - Klagenfurt

DERNIER METAR :
  • 092320Z VRB01KT 9000 FEW005 BKN015 00/00 Q1012 R10L/290195 NOSIG

METARs EXPIRÉS :
  • 092250Z 02003KT 9999 SCT005 BKN014 00/00 Q1011 R10L/290195 TEMPO BKN005
  • 092220Z 33002KT 9999 FEW005 BKN012 BKN025 00/00 Q1011 R10L/290195 NOSIG
  • 092150Z VRB02KT 9000 FEW005 SCT015 BKN025 00/00 Q1011 R10L/290195 NOSIG
  • 092120Z VRB01KT 8000 FEW004 SCT015 BKN025 00/M00 Q1010 R10L/690295 NOSIG
  • 092050Z VRB01KT 6000 FEW002 SCT015 BKN100 00/M00 Q1010 R10L/690295 TEMPO 4000 BR BKN012

TAF TAF LOWK
Valide du 10 à 00h jusqu'au 11 à 00h UTC


092315Z 1000/1024 VRB02KT 8000 FEW004 SCT012 BKN025 TX03/1013Z TNM03/1024Z
TEMPO 1000/1009 4000 BR FEW002 BKN008
PROB30
TEMPO 1000/1006 0800 FZBCFG BKN004
TEMPO 1011/1016 36010KT FEW050 SCT120
TEMPO 1020/1024 4000 BR



MET'MAP, la Météo Aéronautique d'un coup d'oeil ! - Copyright ORBIFLY Décembre 2007 - Disclaimer

ORBIFLY MET'MAP TEAM :

Programmation & Développement : Alexandra Zaïnal
Sur une idée originale de : Baudouin d'Aumeries
Assistance à la programmation : Marc-Olivier Méhu
Soutien technique & logistique : Manuel Goepfert

Contact : metmap@orbifly.com




SOURCES & CREDITS :

   NOAA